Rurrenabaque, Bolivia
Current Conditions -  °F | °C
As of 4:00 PM on Saturday 25 Oct 2014 (Local Time) from SLLP Reporting Station
Scattered Clouds Scattered Clouds  
Wind Chill: 57°   Ceiling: Unl
Heat Index: 57°   Visibility: 6mi
Dew Point: 32°   Wind: 15mph
Humidity: 38%   Direction: 100°E
Pressure: 30.53"   Gusts: NA
Location:  14.46°S, 67.56°W
Report Text: SLLP 252000Z 10013KT 080V140 9999 FEW017 FEW020CB SCT200 14/M00 Q1034
Loading
Personal Weather Stations






























Interactive Weather Map
Tropical Storm Tracking
New forecast layout! Learn more

10-Day Weather Forecast

Advertisements
Track Severe Weather on mobile